Time;durP1;ratioP1;P1;durP2;ratioP2;P2;SDS_P1;SDS_P2;PMS_P1;PMS_P2;Temp;Humidity;BMP_temperature;BMP_pressure;BME280_temperature;BME280_humidity;BME280_pressure;Samples;Min_cycle;Max_cycle;Signal;HPM_P1;HPM_P2
2022/07/03 00:00:08;;;;;;;;;;;;;;;18.50;100.00;100912.66;3056742;19;914;-52
2022/07/03 00:01:15;;;;;;;;;;;;;;;18.47;100.00;100912.94;3056977;19;936;-50
2022/07/03 00:02:17;;;;;;;;;;;;;;;18.43;100.00;100904.25;3057056;19;1801;-58
2022/07/03 00:03:22;;;;;;;;;;;;;;;18.41;100.00;100905.38;3056710;19;969;-54
2022/07/03 00:04:24;;;;;;;;;;;;;;;18.38;100.00;100900.22;3057089;19;1192;-51
2022/07/03 00:05:28;;;;;;;;;;;;;;;18.33;100.00;100896.09;3056734;19;1024;-54
2022/07/03 00:06:30;;;;;;;;;;;;;;;18.31;100.00;100898.06;3057836;19;933;-51
2022/07/03 00:07:35;;;;;;;;;;;;;;;18.27;100.00;100893.91;3057061;19;869;-52
2022/07/03 00:08:37;;;;;;;;;;;;;;;18.25;100.00;100895.03;3056950;19;1049;-53
2022/07/03 00:09:42;;;;;;;;;;;;;;;18.20;100.00;100890.06;3056782;19;1080;-52
2022/07/03 00:10:44;;;;;;;;;;;;;;;18.17;100.00;100893.00;3056661;19;727;-53
2022/07/03 00:11:48;;;;;;;;;;;;;;;18.14;100.00;100892.41;3056493;19;1033;-53
2022/07/03 00:12:50;;;;;;;;;;;;;;;18.08;100.00;100893.81;3056964;19;900;-54
2022/07/03 00:13:55;;;;;;;;;;;;;;;18.05;100.00;100888.66;3058168;19;997;-52
2022/07/03 00:14:57;;;;;;;;;;;;;;;18.01;100.00;100881.81;3056682;19;1862;-53
2022/07/03 00:16:01;;;;;;;;;;;;;;;17.98;100.00;100892.91;3056488;19;964;-53
2022/07/03 00:17:03;;;;;;;;;;;;;;;17.92;100.00;100885.31;3056882;19;948;-56
2022/07/03 00:18:08;;;;;;;;;;;;;;;17.89;100.00;100885.56;3056568;19;917;-51
2022/07/03 00:19:10;;;;;;;;;;;;;;;17.84;100.00;100879.72;3056901;19;882;-51
2022/07/03 00:20:14;;;;;;;;;;;;;;;17.82;100.00;100881.69;3055710;19;1216;-51
2022/07/03 00:21:27;;;;;;;;;;;;;;;17.77;100.00;100873.97;3056708;19;1693;-56
2022/07/03 00:22:33;;;;;;;;;;;;;;;17.72;100.00;100872.69;3056791;19;893;-51
2022/07/03 00:23:44;;;;;;;;;;;;;;;17.70;100.00;100871.94;3056543;19;1788;-54
2022/07/03 00:25:15;;;;;;;;;;;;;;;17.66;100.00;100871.34;3056952;19;1606;-50
2022/07/03 00:26:17;;;;;;;;;;;;;;;17.63;100.00;100869.75;3055501;19;1386;-55
2022/07/03 00:27:23;;;;;;;;;;;;;;;17.59;100.00;100854.78;3057710;19;928;-50
2022/07/03 00:28:25;;;;;;;;;;;;;;;17.57;100.00;100856.75;3056210;19;1366;-53
2022/07/03 00:29:30;;;;;;;;;;;;;;;17.53;100.00;100860.69;3056493;19;893;-51
2022/07/03 00:30:33;;;;;;;;;;;;;;;17.50;100.00;100855.59;3055502;19;1218;-54
2022/07/03 00:31:37;;;;;;;;;;;;;;;17.48;100.00;100848.59;3055600;19;1067;-54
2022/07/03 00:32:39;;;;;;;;;;;;;;;17.45;100.00;100856.94;3055602;19;1060;-53
2022/07/03 00:33:44;;;;;;;;;;;;;;;17.41;100.00;100845.53;3055920;19;1055;-52
2022/07/03 00:34:46;;;;;;;;;;;;;;;17.40;100.00;100848.38;3055578;19;1397;-52
2022/07/03 00:35:51;;;;;;;;;;;;;;;17.38;100.00;100844.97;3055324;19;1853;-51
2022/07/03 00:36:53;;;;;;;;;;;;;;;17.35;100.00;100848.78;3056653;19;1237;-51
2022/07/03 00:37:57;;;;;;;;;;;;;;;17.34;100.00;100844.34;3055742;19;897;-53
2022/07/03 00:38:59;;;;;;;;;;;;;;;17.31;100.00;100839.22;3055155;19;905;-53
2022/07/03 00:40:03;;;;;;;;;;;;;;;17.31;100.00;100839.22;3055694;19;900;-53
2022/07/03 00:41:05;;;;;;;;;;;;;;;17.30;100.00;100834.81;3055442;19;987;-53
2022/07/03 00:42:11;;;;;;;;;;;;;;;17.30;100.00;100837.50;3055691;19;1056;-54
2022/07/03 00:43:13;;;;;;;;;;;;;;;17.28;100.00;100834.94;3055596;19;910;-52
2022/07/03 00:44:18;;;;;;;;;;;;;;;17.30;100.00;100840.19;3055562;19;1007;-50
2022/07/03 00:45:20;;;;;;;;;;;;;;;17.31;100.00;100832.97;3055490;19;1343;-53
2022/07/03 00:46:25;;;;;;;;;;;;;;;17.31;100.00;100825.72;3055731;19;1296;-51
2022/07/03 00:47:30;;;;;;;;;;;;;;;17.32;100.00;100818.50;3056385;19;960;-50
2022/07/03 00:48:32;;;;;;;;;;;;;;;17.33;100.00;100821.06;3056504;19;910;-55
2022/07/03 00:49:37;;;;;;;;;;;;;;;17.34;100.00;100809.28;3054358;19;1015;-53
2022/07/03 00:50:38;;;;;;;;;;;;;;;17.35;100.00;100811.00;3054947;19;996;-52
2022/07/03 00:51:43;;;;;;;;;;;;;;;17.36;100.00;100815.41;3055446;19;849;-50
2022/07/03 00:52:45;;;;;;;;;;;;;;;17.37;100.00;100805.47;3055827;19;988;-53
2022/07/03 00:53:51;;;;;;;;;;;;;;;17.37;100.00;100800.94;3055214;19;1541;-51
2022/07/03 00:54:54;;;;;;;;;;;;;;;17.38;100.00;100805.34;3058201;19;891;-50
2022/07/03 00:55:58;;;;;;;;;;;;;;;17.39;100.00;100804.34;3055964;19;1853;-52
2022/07/03 00:57:04;;;;;;;;;;;;;;;17.40;100.00;100803.34;3055795;19;1581;-53
2022/07/03 00:58:05;;;;;;;;;;;;;;;17.40;100.00;100795.25;3056667;19;1045;-54
2022/07/03 00:59:10;;;;;;;;;;;;;;;17.41;100.00;100791.56;3056865;19;1180;-56
2022/07/03 01:00:13;;;;;;;;;;;;;;;17.41;100.00;100791.56;3056288;19;913;-55
2022/07/03 01:01:18;;;;;;;;;;;;;;;17.41;100.00;100780.78;3058340;19;905;-51
2022/07/03 01:02:26;;;;;;;;;;;;;;;17.43;100.00;100778.81;3056107;19;976;-54
2022/07/03 01:03:31;;;;;;;;;;;;;;;17.42;100.00;100782.50;3056285;19;1344;-54
2022/07/03 01:04:54;;;;;;;;;;;;;;;17.42;100.00;100781.63;3055953;19;898;-53
2022/07/03 01:05:56;;;;;;;;;;;;;;;17.43;100.00;100784.22;3056162;19;942;-52
2022/07/03 01:07:03;;;;;;;;;;;;;;;17.42;100.00;100782.50;3056476;19;1004;-53
2022/07/03 01:08:05;;;;;;;;;;;;;;;17.41;100.00;100775.38;3055882;19;869;-55
2022/07/03 01:09:09;;;;;;;;;;;;;;;17.39;100.00;100771.97;3056096;19;1145;-54
2022/07/03 01:10:30;;;;;;;;;;;;;;;17.40;100.00;100779.06;3055722;19;1056;-54
2022/07/03 01:11:36;;;;;;;;;;;;;;;17.40;100.00;100775.50;3056251;19;949;-57
2022/07/03 01:12:44;;;;;;;;;;;;;;;17.40;100.00;100784.47;3055958;19;1024;-55
2022/07/03 01:14:07;;;;;;;;;;;;;;;17.38;100.00;100778.38;3056481;19;873;-55
2022/07/03 01:15:09;;;;;;;;;;;;;;;17.39;100.00;100771.97;3055080;19;965;-53
2022/07/03 01:16:16;;;;;;;;;;;;;;;17.39;100.00;100782.75;3055090;19;1857;-55
2022/07/03 01:17:25;;;;;;;;;;;;;;;17.39;100.00;100771.97;3056304;19;1005;-52
2022/07/03 01:18:30;;;;;;;;;;;;;;;17.39;100.00;100771.97;3056133;19;909;-52
2022/07/03 01:19:37;;;;;;;;;;;;;;;17.39;100.00;100777.34;3055549;19;1050;-51
2022/07/03 01:20:39;;;;;;;;;;;;;;;17.39;100.00;100771.97;3056120;19;929;-49
2022/07/03 01:21:45;;;;;;;;;;;;;;;17.39;100.00;100769.25;3054954;19;961;-50
2022/07/03 01:22:48;;;;;;;;;;;;;;;17.39;100.00;100765.75;3053783;19;969;-55
2022/07/03 01:23:59;;;;;;;;;;;;;;;17.38;100.00;100770.28;3055043;19;1060;-52
2022/07/03 01:25:10;;;;;;;;;;;;;;;17.37;100.00;100768.56;3055659;19;967;-56
2022/07/03 01:26:14;;;;;;;;;;;;;;;17.36;100.00;100771.38;3055471;19;878;-56
2022/07/03 01:27:19;;;;;;;;;;;;;;;17.35;100.00;100765.13;3055590;19;980;-54
2022/07/03 01:28:24;;;;;;;;;;;;;;;17.33;100.00;100769.81;3055608;19;1780;-51
2022/07/03 01:29:28;;;;;;;;;;;;;;;17.32;100.00;100762.69;3055740;19;944;-54
2022/07/03 01:30:33;;;;;;;;;;;;;;;17.32;100.00;100759.13;3054901;19;921;-50
2022/07/03 01:31:38;;;;;;;;;;;;;;;17.29;100.00;100762.94;3054997;19;1054;-55
2022/07/03 01:32:44;;;;;;;;;;;;;;;17.29;100.00;100761.09;3055016;19;1357;-56
2022/07/03 01:33:48;;;;;;;;;;;;;;;17.28;100.00;100761.22;3055014;19;962;-53
2022/07/03 01:34:51;;;;;;;;;;;;;;;17.26;100.00;100756.00;3054989;19;1210;-54
2022/07/03 01:36:07;;;;;;;;;;;;;;;17.25;100.00;100765.06;3054741;19;913;-51
2022/07/03 01:37:09;;;;;;;;;;;;;;;17.22;100.00;100753.69;3055514;19;1036;-52
2022/07/03 01:38:14;;;;;;;;;;;;;;;17.18;100.00;100752.22;3054826;19;1043;-52
2022/07/03 01:39:17;;;;;;;;;;;;;;;17.17;100.00;100755.91;3054926;19;861;-51
2022/07/03 01:40:42;;;;;;;;;;;;;;;17.12;100.00;100758.16;3056080;19;905;-56
2022/07/03 01:41:44;;;;;;;;;;;;;;;17.10;100.00;100755.56;3055838;19;1808;-54
2022/07/03 01:42:49;;;;;;;;;;;;;;;17.07;100.00;100754.97;3056068;19;973;-53
2022/07/03 01:43:58;;;;;;;;;;;;;;;17.05;100.00;100754.25;3054741;19;953;-54
2022/07/03 01:45:00;;;;;;;;;;;;;;;17.01;100.00;100750.97;3055635;19;846;-55
2022/07/03 01:46:05;;;;;;;;;;;;;;;17.00;100.00;100751.09;3055913;19;1754;-53
2022/07/03 01:47:07;;;;;;;;;;;;;;;16.96;100.00;100746.94;3055751;19;984;-53
2022/07/03 01:48:12;;;;;;;;;;;;;;;16.93;100.00;100748.03;3054481;19;1024;-51
2022/07/03 01:49:14;;;;;;;;;;;;;;;16.91;100.00;100745.47;3054992;19;913;-55
2022/07/03 01:50:19;;;;;;;;;;;;;;;16.88;100.00;100751.13;3054585;19;960;-56
2022/07/03 01:51:23;;;;;;;;;;;;;;;16.86;100.00;100747.72;3054467;19;1670;-51
2022/07/03 01:52:27;;;;;;;;;;;;;;;16.82;100.00;100745.38;3055441;19;933;-53
2022/07/03 01:53:52;;;;;;;;;;;;;;;16.79;100.00;100743.78;3055667;19;1302;-54
2022/07/03 01:54:54;;;;;;;;;;;;;;;16.75;100.00;100739.66;3055798;19;1008;-49
2022/07/03 01:55:59;;;;;;;;;;;;;;;16.75;100.00;100739.66;3054672;19;959;-53
2022/07/03 01:57:01;;;;;;;;;;;;;;;16.71;100.00;100738.19;3054348;19;1864;-51
2022/07/03 01:58:05;;;;;;;;;;;;;;;16.69;100.00;100736.59;3055721;19;929;-53
2022/07/03 01:59:07;;;;;;;;;;;;;;;16.65;100.00;100732.47;3055884;19;949;-52
2022/07/03 02:00:13;;;;;;;;;;;;;;;16.64;100.00;100733.47;3055442;19;1782;-56
2022/07/03 02:01:22;;;;;;;;;;;;;;;16.62;100.00;100738.09;3056705;19;985;-53
2022/07/03 02:02:32;;;;;;;;;;;;;;;16.60;100.00;100734.66;3058739;19;930;-54
2022/07/03 02:03:34;;;;;;;;;;;;;;;16.58;100.00;100732.09;3057891;19;969;-53
2022/07/03 02:04:46;;;;;;;;;;;;;;;16.55;100.00;100737.72;3057570;19;1591;-55
2022/07/03 02:05:49;;;;;;;;;;;;;;;16.53;100.00;100732.47;3058567;19;1020;-54
2022/07/03 02:07:02;;;;;;;;;;;;;;;16.51;100.00;100734.44;3057519;19;877;-54
2022/07/03 02:08:23;;;;;;;;;;;;;;;16.51;100.00;100738.97;3058268;19;897;-53
2022/07/03 02:09:30;;;;;;;;;;;;;;;16.50;100.00;100734.56;3058070;19;811;-56
2022/07/03 02:10:34;;;;;;;;;;;;;;;16.49;100.00;100732.84;3058261;19;1372;-55
2022/07/03 02:11:40;;;;;;;;;;;;;;;16.49;100.00;100732.84;3057712;19;1009;-48
2022/07/03 02:12:45;;;;;;;;;;;;;;;16.48;100.00;100736.53;3057481;19;882;-55
2022/07/03 02:13:49;;;;;;;;;;;;;;;16.47;100.00;100726.72;3057715;19;940;-55
2022/07/03 02:14:53;;;;;;;;;;;;;;;16.47;100.00;100729.41;3058456;19;962;-55
2022/07/03 02:15:59;;;;;;;;;;;;;;;16.47;100.00;100729.41;3057421;19;1297;-52
2022/07/03 02:17:01;;;;;;;;;;;;;;;16.47;100.00;100721.34;3056613;19;1839;-51
2022/07/03 02:18:11;;;;;;;;;;;;;;;16.47;100.00;100729.41;3057872;19;908;-55
2022/07/03 02:19:14;;;;;;;;;;;;;;;16.49;100.00;100727.47;3058521;19;887;-54
2022/07/03 02:20:19;;;;;;;;;;;;;;;16.49;100.00;100728.31;3058417;19;943;-53
2022/07/03 02:21:22;;;;;;;;;;;;;;;16.52;100.00;100724.53;3057816;19;1051;-56
2022/07/03 02:22:44;;;;;;;;;;;;;;;16.52;100.00;100727.22;3056692;19;1068;-58
2022/07/03 02:24:01;;;;;;;;;;;;;;;16.54;100.00;100720.69;3057455;19;917;-55
2022/07/03 02:25:26;;;;;;;;;;;;;;;16.55;100.00;100718.84;3057371;19;1797;-52
2022/07/03 02:26:32;;;;;;;;;;;;;;;16.55;100.00;100717.00;3057953;19;1083;-57
2022/07/03 02:27:43;;;;;;;;;;;;;;;16.57;100.00;100719.59;3058133;19;1024;-52
2022/07/03 02:28:51;;;;;;;;;;;;;;;16.58;100.00;100718.59;3056822;19;1269;-53
2022/07/03 02:30:02;;;;;;;;;;;;;;;16.59;100.00;100723.00;3057508;19;913;-52
2022/07/03 02:31:04;;;;;;;;;;;;;;;16.60;100.00;100722.03;3057316;19;967;-58
2022/07/03 02:32:09;;;;;;;;;;;;;;;16.62;100.00;100721.91;3057271;19;1008;-55
2022/07/03 02:33:11;;;;;;;;;;;;;;;16.66;100.00;100718.03;3057492;19;1040;-55
2022/07/03 02:34:17;;;;;;;;;;;;;;;16.71;100.00;100727.41;3057238;19;2218;-53
2022/07/03 02:35:39;;;;;;;;;;;;;;;16.82;100.00;100729.22;3057358;19;995;-54
2022/07/03 02:36:42;;;;;;;;;;;;;;;16.97;100.00;100721.69;3057873;19;905;-54
2022/07/03 02:37:48;;;;;;;;;;;;;;;17.15;100.00;100730.91;3056744;19;1858;-51
2022/07/03 02:38:52;;;;;;;;;;;;;;;17.28;100.00;100715.38;3058173;19;953;-53
2022/07/03 02:40:00;;;;;;;;;;;;;;;17.52;100.00;100734.84;3056897;19;973;-52
2022/07/03 02:41:37;;;;;;;;;;;;;;;17.73;100.00;100731.31;3057096;19;835;-53
2022/07/03 02:42:47;;;;;;;;;;;;;;;18.19;100.00;100726.25;3056319;19;949;-54
2022/07/03 02:43:55;;;;;;;;;;;;;;;18.52;100.00;100729.59;3056325;19;970;-51
2022/07/03 02:44:58;;;;;;;;;;;;;;;18.83;100.00;100735.78;3056250;19;973;-49
2022/07/03 02:47:31;;;;;;;;;;;;;;;19.42;100.00;100759.97;3055449;19;1932;-55
2022/07/03 02:48:34;;;;;;;;;;;;;;;19.57;100.00;100782.91;3056527;19;940;-56
2022/07/03 02:49:57;;;;;;;;;;;;;;;19.82;100.00;100808.50;3056351;19;992;-53
2022/07/03 02:51:03;;;;;;;;;;;;;;;20.22;100.00;100826.38;3056311;19;973;-53
2022/07/03 02:52:11;;;;;;;;;;;;;;;20.58;100.00;100860.78;3056250;19;953;-51
2022/07/03 02:53:28;;;;;;;;;;;;;;;20.92;100.00;100890.88;3056472;19;858;-54
2022/07/03 02:54:32;;;;;;;;;;;;;;;21.31;100.00;100917.81;3056430;19;922;-50
2022/07/03 02:55:42;;;;;;;;;;;;;;;21.60;100.00;100955.63;3056434;19;840;-53
2022/07/03 02:56:53;;;;;;;;;;;;;;;21.82;100.00;100982.34;3056603;19;1108;-53
2022/07/03 02:58:17;;;;;;;;;;;;;;;21.84;100.00;101013.81;3055139;19;1874;-55
2022/07/03 02:59:22;;;;;;;;;;;;;;;21.56;100.00;101036.56;3056117;19;1875;-54
2022/07/03 03:00:27;;;;;;;;;;;;;;;21.24;100.00;101042.47;3056431;19;1312;-53
2022/07/03 03:01:49;;;;;;;;;;;;;;;20.94;100.00;101040.81;3056152;19;966;-55
2022/07/03 03:02:57;;;;;;;;;;;;;;;20.67;100.00;101032.59;3056042;19;922;-56
2022/07/03 03:04:19;;;;;;;;;;;;;;;20.46;100.00;101035.50;3055923;19;1660;-49
2022/07/03 03:05:31;;;;;;;;;;;;;;;20.21;100.00;101030.63;3056006;19;1479;-52
2022/07/03 03:06:33;;;;;;;;;;;;;;;19.99;100.00;101015.53;3056023;19;938;-52
2022/07/03 03:07:48;;;;;;;;;;;;;;;19.84;100.00;101027.78;3056462;19;869;-52
2022/07/03 03:08:56;;;;;;;;;;;;;;;19.65;100.00;101020.50;3056272;19;938;-51
2022/07/03 03:16:15;;;;;;;;;;;;;;;18.91;100.00;100991.03;3054225;19;1228;-55
2022/07/03 03:17:18;;;;;;;;;;;;;;;18.83;100.00;100992.69;3057309;19;1871;-54
2022/07/03 03:18:24;;;;;;;;;;;;;;;18.77;100.00;100994.09;3058215;19;1117;-54
2022/07/03 03:19:26;;;;;;;;;;;;;;;18.77;100.00;100983.28;3057797;19;975;-54
2022/07/03 03:20:32;;;;;;;;;;;;;;;18.75;100.00;100979.84;3058296;19;1035;-54
2022/07/03 03:21:35;;;;;;;;;;;;;;;18.72;100.00;100985.50;3057734;19;932;-51
2022/07/03 03:22:50;;;;;;;;;;;;;;;18.73;100.00;100973.69;3056792;19;979;-55
2022/07/03 03:23:57;;;;;;;;;;;;;;;18.78;100.00;100973.31;3056633;19;981;-52
2022/07/03 03:25:00;;;;;;;;;;;;;;;18.82;100.00;100970.22;3056525;19;933;-49
2022/07/03 03:26:05;;;;;;;;;;;;;;;18.82;100.00;100961.25;3056617;19;1015;-54
2022/07/03 03:27:07;;;;;;;;;;;;;;;18.89;100.00;100967.81;3057622;19;956;-48
2022/07/03 03:28:11;;;;;;;;;;;;;;;18.94;100.00;100963.72;3056532;19;937;-51
2022/07/03 03:29:13;;;;;;;;;;;;;;;19.02;100.00;100958.47;3055992;19;1036;-54
2022/07/03 03:30:17;;;;;;;;;;;;;;;19.04;100.00;100964.59;3056565;19;1047;-56
2022/07/03 03:31:22;;;;;;;;;;;;;;;19.13;100.00;100971.03;3056874;19;989;-55
2022/07/03 03:32:24;;;;;;;;;;;;;;;19.20;100.00;100974.88;3057547;19;1008;-54
2022/07/03 03:33:29;;;;;;;;;;;;;;;19.29;100.00;100967.81;3057153;19;1016;-50
2022/07/03 03:34:31;;;;;;;;;;;;;;;19.41;100.00;100982.94;3057337;19;953;-53
2022/07/03 03:35:37;;;;;;;;;;;;;;;19.63;100.00;100977.28;3055880;19;1767;-55
2022/07/03 03:36:41;;;;;;;;;;;;;;;19.97;100.00;100987.72;3056534;19;956;-51
2022/07/03 03:37:44;;;;;;;;;;;;;;;20.13;100.00;100990.72;3056769;19;1861;-54
2022/07/03 03:38:49;;;;;;;;;;;;;;;20.13;100.00;101007.84;3056224;19;961;-56
2022/07/03 03:39:51;;;;;;;;;;;;;;;20.15;100.00;101010.41;3056564;19;947;-56
2022/07/03 03:40:56;;;;;;;;;;;;;;;20.19;100.00;101016.38;3057390;19;956;-55
2022/07/03 03:41:57;;;;;;;;;;;;;;;20.48;100.00;101007.25;3058157;19;1014;-54
2022/07/03 03:43:02;;;;;;;;;;;;;;;21.16;100.00;101029.59;3057136;19;896;-54
2022/07/03 03:44:07;;;;;;;;;;;;;;;22.45;100.00;101044.81;3057078;19;1958;-52
2022/07/03 03:45:09;;;;;;;;;;;;;;;23.79;100.00;101066.84;3056884;19;1242;-56
2022/07/03 03:46:14;;;;;;;;;;;;;;;24.90;100.00;101097.34;3057095;19;955;-50
2022/07/03 03:47:19;;;;;;;;;;;;;;;25.91;100.00;101109.38;3056996;19;912;-53
2022/07/03 03:48:21;;;;;;;;;;;;;;;26.82;100.00;101123.13;3056297;19;1108;-56
2022/07/03 03:49:25;;;;;;;;;;;;;;;27.53;100.00;101135.44;3056183;19;933;-51
2022/07/03 03:50:27;;;;;;;;;;;;;;;28.23;100.00;101134.97;3057054;19;964;-54
2022/07/03 03:51:31;;;;;;;;;;;;;;;28.72;100.00;101147.94;3056928;19;977;-57
2022/07/03 03:52:33;;;;;;;;;;;;;;;29.23;99.55;101150.47;3057466;19;876;-56
2022/07/03 03:53:38;;;;;;;;;;;;;;;29.61;95.35;101148.22;3056792;19;1056;-54
2022/07/03 03:54:40;;;;;;;;;;;;;;;30.06;92.01;101147.66;3056909;19;900;-57
2022/07/03 03:56:03;;;;;;;;;;;;;;;30.39;86.29;101157.91;3056435;19;1660;-56
2022/07/03 03:57:23;;;;;;;;;;;;;;;30.85;83.47;101154.41;3057939;19;796;-55
2022/07/03 03:58:25;;;;;;;;;;;;;;;31.34;81.08;101156.78;3056366;19;1846;-55
2022/07/03 03:59:30;;;;;;;;;;;;;;;31.73;78.36;101153.97;3057121;19;975;-57
2022/07/03 04:00:32;;;;;;;;;;;;;;;32.11;76.60;101158.72;3056834;19;952;-55
2022/07/03 04:01:36;;;;;;;;;;;;;;;32.36;74.00;101145.84;3056755;19;958;-54
2022/07/03 04:02:38;;;;;;;;;;;;;;;32.63;71.71;101153.94;3056559;19;989;-51
2022/07/03 04:03:43;;;;;;;;;;;;;;;32.90;69.96;101159.09;3056686;19;1031;-53
2022/07/03 04:04:45;;;;;;;;;;;;;;;33.02;67.73;101162.00;3056628;19;1028;-53
2022/07/03 04:05:49;;;;;;;;;;;;;;;33.24;67.84;101145.84;3057090;19;849;-54
2022/07/03 04:06:51;;;;;;;;;;;;;;;33.38;67.28;101157.66;3056782;19;998;-55
2022/07/03 04:07:56;;;;;;;;;;;;;;;33.63;66.52;101161.22;3056525;19;936;-56
2022/07/03 04:08:58;;;;;;;;;;;;;;;33.79;64.76;101157.88;3056832;19;924;-55
2022/07/03 04:10:02;;;;;;;;;;;;;;;33.95;64.57;101162.78;3056687;19;1597;-54
2022/07/03 04:11:04;;;;;;;;;;;;;;;34.16;63.81;101158.69;3056426;19;1001;-54
2022/07/03 04:12:08;;;;;;;;;;;;;;;34.18;62.27;101166.75;3056590;19;961;-53
2022/07/03 04:13:10;;;;;;;;;;;;;;;34.03;60.91;101161.63;3056239;19;1052;-52
2022/07/03 04:14:15;;;;;;;;;;;;;;;34.12;60.51;101156.59;3056384;19;1679;-53
2022/07/03 04:15:17;;;;;;;;;;;;;;;34.34;61.75;101163.38;3056557;19;1297;-51
2022/07/03 04:16:21;;;;;;;;;;;;;;;34.57;61.74;101171.78;3055898;19;1436;-52
2022/07/03 04:17:23;;;;;;;;;;;;;;;34.57;60.13;101174.53;3056703;19;891;-53
2022/07/03 04:18:27;;;;;;;;;;;;;;;34.79;60.12;101165.72;3055552;19;1862;-56
2022/07/03 04:19:33;;;;;;;;;;;;;;;35.11;60.03;101167.09;3056043;19;939;-54
2022/07/03 04:20:38;;;;;;;;;;;;;;;35.36;58.59;101158.59;3056532;19;901;-51
2022/07/03 04:21:40;;;;;;;;;;;;;;;35.41;57.00;101155.91;3057010;19;1015;-58
2022/07/03 04:22:44;;;;;;;;;;;;;;;35.64;57.59;101161.44;3056305;19;1012;-52
2022/07/03 04:23:46;;;;;;;;;;;;;;;35.76;55.92;101169.78;3056560;19;962;-52
2022/07/03 04:24:50;;;;;;;;;;;;;;;35.87;56.17;101166.13;3053923;19;854;-55
2022/07/03 04:25:52;;;;;;;;;;;;;;;36.05;56.31;101163.22;3056644;19;917;-56
2022/07/03 04:26:57;;;;;;;;;;;;;;;36.05;54.06;101159.59;3056291;19;886;-53
2022/07/03 04:27:58;;;;;;;;;;;;;;;36.03;53.18;101159.81;3056751;19;1425;-56
2022/07/03 04:29:23;;;;;;;;;;;;;;;36.08;54.48;101159.09;3055366;19;1710;-52
2022/07/03 04:30:25;;;;;;;;;;;;;;;36.22;54.38;101157.75;3057955;19;1714;-55
2022/07/03 04:31:30;;;;;;;;;;;;;;;36.29;52.84;101163.16;3056325;19;916;-55
2022/07/03 04:32:32;;;;;;;;;;;;;;;36.44;53.82;101160.69;3056627;19;818;-53
2022/07/03 04:33:36;;;;;;;;;;;;;;;36.60;53.50;101162.63;3055608;19;823;-52
2022/07/03 04:34:38;;;;;;;;;;;;;;;36.74;53.90;101161.25;3057124;19;844;-52
2022/07/03 04:35:42;;;;;;;;;;;;;;;36.94;53.07;101148.81;3056182;19;889;-54
2022/07/03 04:36:44;;;;;;;;;;;;;;;36.93;51.96;101149.91;3056722;19;916;-53
2022/07/03 04:37:49;;;;;;;;;;;;;;;37.12;51.88;101154.09;3056599;19;1113;-54
2022/07/03 04:38:51;;;;;;;;;;;;;;;37.11;51.37;101155.19;3056183;19;1849;-51
2022/07/03 04:39:55;;;;;;;;;;;;;;;37.20;50.83;101153.69;3056293;19;1590;-54
2022/07/03 04:40:57;;;;;;;;;;;;;;;37.10;49.10;101153.50;3056410;19;1107;-54
2022/07/03 04:42:01;;;;;;;;;;;;;;;37.06;50.16;101149.56;3055980;19;1691;-52
2022/07/03 04:43:03;;;;;;;;;;;;;;;36.99;50.49;101146.09;3056099;19;928;-51
2022/07/03 04:44:07;;;;;;;;;;;;;;;37.01;50.68;101149.47;3056020;19;1790;-52
2022/07/03 04:45:09;;;;;;;;;;;;;;;37.18;51.18;101146.72;3056257;19;1048;-51
2022/07/03 04:46:14;;;;;;;;;;;;;;;37.31;51.25;101150.00;3056234;19;894;-52
2022/07/03 04:47:16;;;;;;;;;;;;;;;37.40;50.66;101142.88;3057972;19;1153;-55
2022/07/03 04:48:20;;;;;;;;;;;;;;;37.44;50.37;101144.03;3055647;19;1763;-53
2022/07/03 04:49:22;;;;;;;;;;;;;;;37.49;49.46;101141.34;3056312;19;1773;-57
2022/07/03 04:50:27;;;;;;;;;;;;;;;37.52;50.49;101144.72;3055925;19;1642;-52
2022/07/03 04:51:29;;;;;;;;;;;;;;;37.66;50.47;101146.91;3056556;19;980;-54
2022/07/03 04:52:33;;;;;;;;;;;;;;;37.76;51.07;101144.25;3055993;19;940;-57
2022/07/03 04:53:35;;;;;;;;;;;;;;;37.91;50.80;101146.41;3056655;19;857;-53
2022/07/03 04:54:39;;;;;;;;;;;;;;;38.05;51.06;101144.88;3056080;19;1207;-52
2022/07/03 04:55:41;;;;;;;;;;;;;;;37.89;47.41;101144.97;3056015;19;1044;-53
2022/07/03 04:56:46;;;;;;;;;;;;;;;37.88;48.08;101143.28;3056112;19;1595;-52
2022/07/03 04:57:47;;;;;;;;;;;;;;;37.71;48.63;101140.56;3055955;19;1147;-51
2022/07/03 04:58:52;;;;;;;;;;;;;;;37.55;48.32;101141.44;3055877;19;1854;-52
2022/07/03 04:59:54;;;;;;;;;;;;;;;37.45;48.88;101134.59;3055975;19;941;-56
2022/07/03 05:00:58;;;;;;;;;;;;;;;37.49;49.87;101144.13;3056206;19;975;-55
2022/07/03 05:02:00;;;;;;;;;;;;;;;37.49;49.10;101144.13;3056492;19;829;-54
2022/07/03 05:03:05;;;;;;;;;;;;;;;37.49;49.04;101149.69;3056058;19;869;-54
2022/07/03 05:04:07;;;;;;;;;;;;;;;37.50;49.37;101148.59;3055960;19;1575;-54
2022/07/03 05:05:11;;;;;;;;;;;;;;;37.56;49.20;101148.69;3055232;19;1716;-56
2022/07/03 05:06:13;;;;;;;;;;;;;;;37.57;48.70;101153.13;3055213;19;1291;-56
2022/07/03 05:07:23;;;;;;;;;;;;;;;37.60;49.22;101153.47;3053141;19;2720;-53
2022/07/03 05:08:25;;;;;;;;;;;;;;;37.64;48.59;101153.84;3053820;19;1561;-51
2022/07/03 05:09:29;;;;;;;;;;;;;;;37.67;49.60;101154.19;3056429;19;1646;-52
2022/07/03 05:10:31;;;;;;;;;;;;;;;37.58;49.26;101154.81;3056006;19;1039;-55
2022/07/03 05:11:36;;;;;;;;;;;;;;;37.25;47.84;101156.56;3055774;19;1750;-52
2022/07/03 05:12:38;;;;;;;;;;;;;;;37.20;48.21;101158.41;3054908;19;964;-55
2022/07/03 05:13:44;;;;;;;;;;;;;;;37.07;48.77;101159.59;3054700;19;1626;-53
2022/07/03 05:14:46;;;;;;;;;;;;;;;36.94;49.35;101151.59;3055644;19;912;-55
2022/07/03 05:15:51;;;;;;;;;;;;;;;36.60;50.25;101154.28;3055437;19;1782;-54
2022/07/03 05:16:53;;;;;;;;;;;;;;;35.25;51.50;101151.94;3055974;19;925;-54
2022/07/03 05:17:57;;;;;;;;;;;;;;;33.43;53.53;101141.22;3056231;19;956;-54
2022/07/03 05:18:59;;;;;;;;;;;;;;;31.85;57.99;101132.91;3056289;19;932;-54
2022/07/03 05:21:21;;;;;;;;;;;;;;;29.58;68.48;101126.66;3055032;19;995;-53
2022/07/03 05:22:23;;;;;;;;;;;;;;;28.54;70.05;101120.06;3055412;19;936;-54
2022/07/03 05:23:27;;;;;;;;;;;;;;;27.93;75.09;101120.41;3055806;19;1043;-55
2022/07/03 05:24:29;;;;;;;;;;;;;;;27.25;76.56;101126.19;3055397;19;802;-54
2022/07/03 05:25:34;;;;;;;;;;;;;;;26.64;80.48;101114.41;3055027;19;985;-50
2022/07/03 05:26:35;;;;;;;;;;;;;;;26.02;83.45;101111.72;3055860;19;1349;-55
2022/07/03 05:27:40;;;;;;;;;;;;;;;25.63;89.60;101111.72;3055363;19;1669;-50
2022/07/03 05:28:44;;;;;;;;;;;;;;;25.16;94.29;101108.94;3056071;19;866;-53
2022/07/03 05:29:46;;;;;;;;;;;;;;;24.68;97.60;101099.75;3055800;19;928;-53
2022/07/03 05:30:51;;;;;;;;;;;;;;;24.30;99.90;101103.13;3055705;19;1675;-56
2022/07/03 05:31:53;;;;;;;;;;;;;;;23.85;100.00;101106.25;3055448;19;2054;-53
2022/07/03 05:32:57;;;;;;;;;;;;;;;23.49;100.00;101100.09;3055795;19;1052;-58
2022/07/03 05:33:59;;;;;;;;;;;;;;;23.11;100.00;101095.97;3055787;19;879;-50
2022/07/03 05:35:04;;;;;;;;;;;;;;;22.83;100.00;101093.41;3055862;19;1764;-54
2022/07/03 05:36:06;;;;;;;;;;;;;;;22.57;100.00;101093.38;3056024;19;992;-58
2022/07/03 05:37:10;;;;;;;;;;;;;;;22.23;100.00;101086.91;3058927;19;868;-53
2022/07/03 05:38:13;;;;;;;;;;;;;;;22.10;100.00;101086.44;3058838;19;980;-54
2022/07/03 05:40:34;;;;;;;;;;;;;;;21.60;100.00;101081.44;3058470;19;1072;-56
2022/07/03 05:41:36;;;;;;;;;;;;;;;21.51;100.00;101087.75;3058761;19;1037;-56
2022/07/03 05:42:41;;;;;;;;;;;;;;;21.38;100.00;101081.81;3058463;19;1634;-51
2022/07/03 05:43:42;;;;;;;;;;;;;;;21.31;100.00;101086.16;3059036;19;945;-57
2022/07/03 05:44:47;;;;;;;;;;;;;;;21.20;100.00;101085.34;3058356;19;957;-53
2022/07/03 05:45:51;;;;;;;;;;;;;;;21.12;100.00;101090.63;3058931;19;818;-51
2022/07/03 05:46:53;;;;;;;;;;;;;;;20.99;100.00;101078.38;3058575;19;1076;-55
2022/07/03 05:47:58;;;;;;;;;;;;;;;20.99;100.00;101079.22;3058624;19;957;-56
2022/07/03 05:49:03;;;;;;;;;;;;;;;20.88;100.00;101073.97;3058547;19;1039;-53
2022/07/03 05:50:07;;;;;;;;;;;;;;;20.82;100.00;101075.41;3058647;19;972;-53